createdAt,value
2019-01-15T00:00:06.262Z,2.50
2019-01-15T00:02:35.009Z,2.30
2019-01-15T00:05:05.515Z,2.20
2019-01-15T00:07:34.133Z,2.67
2019-01-15T00:10:02.806Z,1.90
2019-01-15T00:12:31.549Z,2.13
2019-01-15T00:15:00.200Z,1.60
2019-01-15T00:17:28.895Z,2.67
2019-01-15T00:19:57.547Z,1.67
2019-01-15T00:22:26.228Z,1.73
2019-01-15T00:24:54.823Z,2.23
2019-01-15T00:27:23.418Z,2.33
2019-01-15T00:29:52.068Z,2.23
2019-01-15T00:32:20.651Z,2.07
2019-01-15T00:34:49.261Z,2.17
2019-01-15T00:37:17.745Z,2.50
2019-01-15T00:39:46.317Z,2.30
2019-01-15T00:42:15.379Z,2.10
2019-01-15T00:44:44.243Z,2.00
2019-01-15T00:47:12.785Z,2.07
2019-01-15T00:49:41.354Z,2.13
2019-01-15T00:52:10.122Z,2.20
2019-01-15T00:54:38.759Z,2.30
2019-01-15T00:57:07.361Z,2.10
2019-01-15T00:59:36.056Z,2.57
2019-01-15T01:02:05.071Z,2.60
2019-01-15T01:04:33.644Z,2.47
2019-01-15T01:07:03.888Z,2.73
2019-01-15T01:09:32.469Z,2.17
2019-01-15T01:12:01.083Z,2.40
2019-01-15T01:14:29.771Z,2.30
2019-01-15T01:16:58.314Z,2.30
2019-01-15T01:19:27.006Z,2.80
2019-01-15T01:21:55.560Z,2.43
2019-01-15T01:24:24.276Z,2.33
2019-01-15T01:26:53.185Z,2.13
2019-01-15T01:29:21.809Z,3.07
2019-01-15T01:31:50.373Z,2.80
2019-01-15T01:34:18.926Z,3.33
2019-01-15T01:36:47.556Z,3.30
2019-01-15T01:39:16.318Z,3.23
2019-01-15T01:41:44.953Z,3.17
2019-01-15T01:44:13.727Z,2.97
2019-01-15T01:46:42.501Z,2.63
2019-01-15T01:49:11.317Z,2.33
2019-01-15T01:51:39.911Z,2.80
2019-01-15T01:54:08.721Z,3.40
2019-01-15T01:56:37.549Z,3.07
2019-01-15T01:59:06.345Z,3.90
2019-01-15T02:01:35.101Z,3.93
2019-01-15T02:04:03.869Z,3.80
2019-01-15T02:06:32.541Z,4.73
2019-01-15T02:09:01.186Z,4.67
2019-01-15T02:11:29.751Z,3.47
2019-01-15T02:13:58.374Z,4.73
2019-01-15T02:16:27.050Z,4.10
2019-01-15T02:18:59.946Z,3.80
2019-01-15T02:21:29.440Z,4.57
2019-01-15T02:23:57.994Z,3.97
2019-01-15T02:26:26.639Z,4.73
2019-01-15T02:28:55.183Z,4.87
2019-01-15T02:31:23.845Z,4.80
2019-01-15T02:33:52.448Z,5.23
2019-01-15T02:39:10.412Z,5.17
2019-01-15T02:41:39.105Z,5.53
2019-01-15T02:44:07.757Z,5.87
2019-01-15T02:46:36.472Z,5.40
2019-01-15T02:49:05.334Z,5.70
2019-01-15T02:51:34.053Z,5.83
2019-01-15T02:56:58.512Z,6.43
2019-01-15T02:59:27.293Z,7.63
2019-01-15T03:01:55.937Z,6.80
2019-01-15T03:04:25.228Z,7.70
2019-01-15T03:06:54.009Z,7.77
2019-01-15T03:09:22.637Z,8.77
2019-01-15T03:11:51.808Z,8.97
2019-01-15T03:14:22.129Z,9.50
2019-01-15T03:19:43.754Z,8.50
2019-01-15T03:35:00.294Z,9.20
2019-01-15T03:43:33.516Z,9.47
2019-01-15T03:46:04.383Z,9.50
2019-01-15T03:51:53.596Z,10.50
2019-01-15T04:05:48.708Z,9.87
2019-01-15T04:08:17.398Z,9.17
2019-01-15T04:10:47.689Z,9.47
2019-01-15T04:13:21.773Z,10.30
2019-01-15T04:15:48.585Z,9.80
2019-01-15T04:18:17.235Z,10.47
2019-01-15T04:20:46.171Z,9.90
2019-01-15T04:23:14.871Z,10.43
2019-01-15T04:25:43.607Z,10.53
2019-01-15T04:28:13.512Z,9.53
2019-01-15T04:30:42.303Z,9.90
2019-01-15T04:33:11.163Z,11.17
2019-01-15T04:35:39.799Z,10.80
2019-01-15T04:50:16.993Z,10.50
2019-01-15T04:52:51.737Z,11.30
2019-01-15T04:55:25.250Z,11.90
2019-01-15T05:26:45.038Z,11.73
2019-01-15T05:29:15.046Z,13.23
2019-01-15T05:31:43.892Z,12.37
2019-01-15T05:34:12.493Z,12.57
2019-01-15T05:36:41.244Z,12.30
2019-01-15T05:39:12.035Z,12.10
2019-01-15T05:41:44.705Z,14.43
2019-01-15T05:44:13.448Z,15.17
2019-01-15T05:46:42.286Z,14.83
2019-01-15T05:49:13.185Z,15.10
2019-01-15T05:51:41.920Z,13.97
2019-01-15T05:54:10.543Z,13.60
2019-01-15T05:56:39.244Z,13.87
2019-01-15T05:59:07.995Z,13.90
2019-01-15T06:01:38.360Z,13.73
2019-01-15T06:04:08.225Z,13.87
2019-01-15T06:06:37.091Z,13.90
2019-01-15T06:11:58.464Z,13.77
2019-01-15T06:14:27.113Z,12.50
2019-01-15T06:16:55.814Z,13.30
2019-01-15T06:19:24.373Z,11.77
2019-01-15T06:21:52.955Z,12.33
2019-01-15T06:24:21.520Z,10.80
2019-01-15T06:26:50.106Z,12.43
2019-01-15T06:29:18.823Z,12.80
2019-01-15T06:31:47.482Z,11.80
2019-01-15T06:34:16.186Z,12.33
2019-01-15T06:36:44.759Z,11.43
2019-01-15T06:39:13.330Z,12.27
2019-01-15T06:41:41.995Z,14.07
2019-01-15T06:44:10.597Z,13.27
2019-01-15T06:46:39.113Z,13.57
2019-01-15T06:49:07.713Z,12.83
2019-01-15T06:51:36.329Z,12.87
2019-01-15T06:54:04.970Z,12.53
2019-01-15T06:56:33.543Z,12.23
2019-01-15T06:59:02.186Z,12.70
2019-01-15T07:01:30.765Z,12.83
2019-01-15T07:03:59.417Z,12.07
2019-01-15T07:06:27.921Z,13.50
2019-01-15T07:08:56.510Z,12.93
2019-01-15T07:11:25.065Z,12.60
2019-01-15T07:13:57.158Z,13.27
2019-01-15T07:16:23.928Z,12.23
2019-01-15T07:18:52.577Z,12.73
2019-01-15T07:21:21.310Z,15.20
2019-01-15T07:23:49.967Z,11.53
2019-01-15T07:26:18.512Z,13.57
2019-01-15T07:28:47.107Z,11.03
2019-01-15T07:31:15.665Z,9.67
2019-01-15T07:33:44.250Z,10.43
2019-01-15T07:36:12.810Z,10.83
2019-01-15T07:38:41.402Z,11.00
2019-01-15T07:41:10.035Z,10.50
2019-01-15T07:43:38.778Z,12.87
2019-01-15T07:46:07.543Z,11.80
2019-01-15T07:48:36.333Z,10.40
2019-01-15T07:51:04.930Z,10.70
2019-01-15T07:53:33.571Z,12.20
2019-01-15T07:56:02.184Z,11.20
2019-01-15T07:58:30.791Z,10.77
2019-01-15T08:00:59.482Z,9.07
2019-01-15T08:03:28.878Z,9.50
2019-01-15T08:05:57.628Z,10.80
2019-01-15T08:08:26.309Z,9.67
2019-01-15T08:10:57.055Z,9.53
2019-01-15T08:13:25.281Z,9.97
2019-01-15T08:15:53.955Z,9.60
2019-01-15T08:18:22.593Z,8.70
2019-01-15T08:20:51.244Z,9.30
2019-01-15T08:23:19.799Z,10.93
2019-01-15T08:25:48.434Z,9.13
2019-01-15T08:28:16.985Z,10.40
2019-01-15T08:30:45.561Z,10.07
2019-01-15T08:33:14.138Z,9.70
2019-01-15T08:35:42.725Z,11.07
2019-01-15T08:38:11.349Z,10.13
2019-01-15T08:40:39.980Z,8.77
2019-01-15T08:43:08.516Z,11.13
2019-01-15T08:45:37.009Z,9.63
2019-01-15T08:48:07.355Z,9.63
2019-01-15T08:50:36.097Z,10.50
2019-01-15T08:53:04.831Z,10.03
2019-01-15T08:55:33.435Z,10.03
2019-01-15T08:58:02.087Z,10.67
2019-01-15T09:00:30.676Z,10.33
2019-01-15T09:02:59.316Z,11.23
2019-01-15T09:05:27.833Z,11.67
2019-01-15T09:07:56.502Z,10.80
2019-01-15T09:10:25.291Z,11.23
2019-01-15T09:12:54.038Z,10.77
2019-01-15T09:15:23.593Z,12.43
2019-01-15T09:17:52.145Z,11.93
2019-01-15T09:20:21.824Z,12.60
2019-01-15T09:22:50.561Z,12.70
2019-01-15T09:25:19.245Z,12.60
2019-01-15T09:27:47.949Z,13.90
2019-01-15T09:30:21.736Z,13.60
2019-01-15T09:32:50.530Z,13.67
2019-01-15T09:35:19.214Z,14.00
2019-01-15T09:37:49.528Z,15.20
2019-01-15T09:40:20.216Z,13.33
2019-01-15T09:42:48.854Z,14.17
2019-01-15T09:45:21.890Z,15.60
2019-01-15T09:48:01.177Z,15.13
2019-01-15T09:50:29.812Z,14.63
2019-01-15T09:52:58.898Z,14.47
2019-01-15T09:55:27.667Z,14.93
2019-01-15T09:57:56.434Z,15.07
2019-01-15T10:00:25.187Z,15.90
2019-01-15T10:02:54.020Z,17.23
2019-01-15T10:05:22.679Z,15.90
2019-01-15T10:07:51.446Z,14.43
2019-01-15T10:10:20.210Z,17.40
2019-01-15T10:12:48.883Z,17.67
2019-01-15T10:15:19.697Z,15.60
2019-01-15T10:17:48.332Z,15.77
2019-01-15T10:20:19.874Z,17.23
2019-01-15T10:22:49.109Z,16.00
2019-01-15T10:25:22.411Z,15.40
2019-01-15T10:27:52.349Z,15.77
2019-01-15T10:30:40.557Z,14.50
2019-01-15T10:33:26.898Z,15.20
2019-01-15T10:35:55.371Z,15.47
2019-01-15T10:38:26.281Z,16.80
2019-01-15T10:40:56.781Z,15.97
2019-01-15T10:43:26.118Z,15.57
2019-01-15T10:45:54.738Z,20.27
2019-01-15T10:48:23.329Z,18.80
2019-01-15T10:50:51.971Z,16.50
2019-01-15T10:53:20.639Z,16.73
2019-01-15T10:55:49.299Z,17.83
2019-01-15T10:58:18.042Z,14.70
2019-01-15T11:00:46.707Z,16.33
2019-01-15T11:03:15.301Z,14.53
2019-01-15T11:05:43.996Z,13.03
2019-01-15T11:08:12.746Z,13.10
2019-01-15T11:10:41.433Z,13.63
2019-01-15T11:13:09.969Z,11.10
2019-01-15T11:15:43.109Z,11.00
2019-01-15T11:18:08.886Z,10.30
2019-01-15T11:20:37.538Z,11.47
2019-01-15T11:23:06.158Z,10.33
2019-01-15T11:25:34.732Z,10.27
2019-01-15T11:28:04.845Z,10.10
2019-01-15T11:30:33.493Z,10.60
2019-01-15T11:33:02.117Z,10.53
2019-01-15T11:35:30.677Z,8.53
2019-01-15T11:37:59.141Z,8.67
2019-01-15T11:40:27.708Z,8.67
2019-01-15T11:42:56.258Z,10.07
2019-01-15T11:45:24.901Z,8.70
2019-01-15T11:47:53.613Z,9.07
2019-01-15T11:50:22.814Z,8.53
2019-01-15T11:52:51.489Z,8.40
2019-01-15T11:55:21.325Z,9.93
2019-01-15T11:57:50.075Z,9.13
2019-01-15T12:00:25.530Z,8.87
2019-01-15T12:02:55.777Z,9.87
2019-01-15T12:05:41.882Z,9.73
2019-01-15T12:08:14.685Z,9.37
2019-01-15T12:10:56.498Z,10.27
2019-01-15T12:13:42.717Z,9.90
2019-01-15T12:16:22.009Z,9.93
2019-01-15T12:19:10.043Z,9.90
2019-01-15T12:21:55.046Z,9.93
2019-01-15T12:24:28.031Z,11.23
2019-01-15T12:26:58.239Z,11.57
2019-01-15T12:29:44.178Z,10.37
2019-01-15T12:32:30.373Z,10.83
2019-01-15T12:35:06.406Z,11.23
2019-01-15T12:37:42.453Z,10.97
2019-01-15T12:40:12.882Z,10.77
2019-01-15T12:42:43.119Z,11.20
2019-01-15T12:45:25.458Z,10.77
2019-01-15T12:47:58.378Z,11.07
2019-01-15T12:50:37.261Z,12.23
2019-01-15T12:53:13.242Z,10.93
2019-01-15T12:55:59.182Z,11.33
2019-01-15T12:58:35.161Z,12.23
2019-01-15T13:01:11.562Z,12.00
2019-01-15T13:03:41.752Z,11.13
2019-01-15T13:06:23.773Z,11.60
2019-01-15T13:08:53.885Z,11.50
2019-01-15T13:11:24.102Z,11.47
2019-01-15T13:14:02.745Z,10.97
2019-01-15T13:16:33.047Z,11.77
2019-01-15T13:19:03.264Z,11.57
2019-01-15T13:21:45.138Z,9.23
2019-01-15T13:24:24.562Z,9.63
2019-01-15T13:26:54.916Z,10.17
2019-01-15T13:29:25.131Z,9.80
2019-01-15T13:31:55.418Z,9.87
2019-01-15T13:34:41.995Z,8.77
2019-01-15T13:37:20.982Z,9.93
2019-01-15T13:40:00.203Z,9.70
2019-01-15T13:42:33.230Z,9.73
2019-01-15T13:45:09.418Z,10.10
2019-01-15T13:47:39.641Z,9.37
2019-01-15T13:50:10.690Z,9.33
2019-01-15T13:52:46.862Z,9.17
2019-01-15T13:55:22.778Z,9.23
2019-01-15T13:58:04.862Z,9.37
2019-01-15T14:00:35.055Z,8.40
2019-01-15T14:03:05.284Z,8.57
2019-01-15T14:05:35.550Z,8.77
2019-01-15T14:08:08.865Z,8.50
2019-01-15T14:10:44.517Z,7.97
2019-01-15T14:13:26.986Z,8.10
2019-01-15T14:15:57.276Z,7.27
2019-01-15T14:18:30.497Z,7.47
2019-01-15T14:21:06.298Z,8.83
2019-01-15T14:23:45.053Z,8.20
2019-01-15T14:26:27.239Z,8.17
2019-01-15T14:29:09.417Z,8.90
2019-01-15T14:31:57.601Z,8.93
2019-01-15T14:34:43.839Z,9.17
2019-01-15T14:37:16.600Z,9.53
2019-01-15T14:39:52.356Z,9.63
2019-01-15T14:42:37.172Z,9.70
2019-01-15T14:45:25.004Z,8.03
2019-01-15T14:48:11.026Z,10.50
2019-01-15T14:50:56.261Z,9.57
2019-01-15T14:53:44.219Z,8.43
2019-01-15T14:56:23.257Z,9.33
2019-01-15T14:59:08.225Z,8.07
2019-01-15T15:01:38.360Z,7.47
2019-01-15T15:04:08.565Z,7.93
2019-01-15T15:06:41.296Z,7.77
2019-01-15T15:09:14.644Z,7.97
2019-01-15T15:12:02.753Z,8.00
2019-01-15T15:14:38.959Z,7.40
2019-01-15T15:17:14.829Z,8.50
2019-01-15T15:19:50.597Z,7.10
2019-01-15T15:22:37.501Z,6.57
2019-01-15T15:25:13.468Z,6.70
2019-01-15T15:27:55.796Z,7.90
2019-01-15T15:30:37.609Z,7.17
2019-01-15T15:33:13.618Z,6.50
2019-01-15T15:35:49.721Z,6.53
2019-01-15T15:38:35.843Z,6.17
2019-01-15T15:41:22.333Z,7.13
2019-01-15T15:43:58.372Z,6.37
2019-01-15T15:46:31.057Z,6.60
2019-01-15T15:49:01.228Z,6.57
2019-01-15T15:51:40.526Z,6.30
2019-01-15T15:54:16.460Z,5.73
2019-01-15T15:56:46.584Z,5.60
2019-01-15T15:59:22.523Z,6.53
2019-01-15T16:01:52.866Z,8.00
2019-01-15T16:04:28.944Z,5.40
2019-01-15T16:07:05.203Z,5.77
2019-01-15T16:09:47.626Z,6.27
2019-01-15T16:12:33.511Z,5.83
2019-01-15T16:15:06.431Z,6.23
2019-01-15T16:17:39.869Z,5.43
2019-01-15T16:20:16.890Z,4.77
2019-01-15T16:22:47.107Z,5.73
2019-01-15T16:25:29.301Z,5.23
2019-01-15T16:28:08.501Z,6.37
2019-01-15T16:30:47.741Z,5.63
2019-01-15T16:33:29.512Z,4.87
2019-01-15T16:36:15.959Z,5.73
2019-01-15T16:39:01.865Z,5.20
2019-01-15T16:41:44.172Z,5.80
2019-01-15T16:44:20.254Z,5.40
2019-01-15T16:46:56.309Z,5.00
2019-01-15T16:49:26.493Z,5.40
2019-01-15T16:52:12.889Z,5.73
2019-01-15T16:54:46.070Z,5.47
2019-01-15T16:57:31.201Z,5.30
2019-01-15T17:00:09.909Z,6.03
2019-01-15T17:02:40.050Z,6.17
2019-01-15T17:05:23.255Z,5.13
2019-01-15T17:07:56.513Z,6.40
2019-01-15T17:10:26.805Z,5.63
2019-01-15T17:12:59.839Z,5.50
2019-01-15T17:15:33.011Z,5.30
2019-01-15T17:18:09.043Z,6.33
2019-01-15T17:20:40.839Z,6.17
2019-01-15T17:23:11.106Z,5.70
2019-01-15T17:25:43.786Z,5.27
2019-01-15T17:28:29.990Z,6.40
2019-01-15T17:31:05.516Z,5.73
2019-01-15T17:33:35.641Z,5.57
2019-01-15T17:36:23.585Z,5.77
2019-01-15T17:39:09.586Z,5.93
2019-01-15T17:41:42.494Z,7.03
2019-01-15T17:44:12.798Z,6.07
2019-01-15T17:46:43.012Z,6.23
2019-01-15T17:49:13.205Z,7.30
2019-01-15T17:51:59.528Z,6.20
2019-01-15T17:54:44.654Z,6.23
2019-01-15T17:57:17.449Z,5.80
2019-01-15T18:00:02.230Z,6.10
2019-01-15T18:02:44.288Z,5.33
2019-01-15T18:05:17.445Z,6.13
2019-01-15T18:08:03.834Z,5.50
2019-01-15T18:10:42.724Z,6.17
2019-01-15T18:13:28.855Z,5.50
2019-01-15T18:16:04.790Z,6.03
2019-01-15T18:18:41.562Z,6.50
2019-01-15T18:21:11.777Z,5.80
2019-01-15T18:23:42.004Z,5.27
2019-01-15T18:26:18.317Z,5.97
2019-01-15T18:28:48.494Z,6.17
2019-01-15T18:31:18.693Z,6.00
2019-01-15T18:33:50.422Z,6.17
2019-01-15T18:36:23.465Z,5.83
2019-01-15T18:38:56.519Z,5.50
2019-01-15T18:41:41.402Z,5.50
2019-01-15T18:44:27.647Z,5.80
2019-01-15T18:47:13.820Z,5.93
2019-01-15T18:49:49.848Z,6.03
2019-01-15T18:52:25.424Z,6.00
2019-01-15T18:54:55.686Z,6.10
2019-01-15T18:57:28.473Z,6.00
2019-01-15T18:59:58.685Z,6.57
2019-01-15T19:02:37.729Z,7.00
2019-01-15T19:05:17.718Z,6.60
2019-01-15T19:07:59.929Z,8.20
2019-01-15T19:10:30.301Z,6.20
2019-01-15T19:13:16.541Z,6.90
2019-01-15T19:15:46.834Z,6.53
2019-01-15T19:18:34.600Z,8.20
2019-01-15T19:21:10.617Z,10.00
2019-01-15T19:23:55.654Z,8.80
2019-01-15T19:26:25.935Z,10.00
2019-01-15T19:29:08.163Z,8.30
2019-01-15T19:31:41.343Z,10.03
2019-01-15T19:34:11.542Z,18.83
2019-01-15T19:36:57.927Z,9.10
2019-01-15T19:39:30.847Z,7.27
2019-01-15T19:42:07.128Z,7.63
2019-01-15T19:44:38.270Z,7.00
2019-01-15T19:47:10.720Z,8.03
2019-01-15T19:49:41.775Z,8.33
2019-01-15T19:52:14.953Z,7.63
2019-01-15T19:54:47.538Z,7.80
2019-01-15T19:57:33.950Z,6.70
2019-01-15T20:00:06.621Z,8.30
2019-01-15T20:02:36.842Z,6.80
2019-01-15T20:05:23.683Z,8.00
2019-01-15T20:07:59.578Z,8.37
2019-01-15T20:10:38.749Z,7.53
2019-01-15T20:13:09.038Z,7.50
2019-01-15T20:15:56.993Z,7.60
2019-01-15T20:18:29.971Z,8.30
2019-01-15T20:21:00.174Z,8.43
2019-01-15T20:23:33.478Z,8.90
2019-01-15T20:26:09.504Z,8.63
2019-01-15T20:28:48.330Z,8.37
2019-01-15T20:31:35.810Z,9.63
2019-01-15T20:34:18.403Z,9.10
2019-01-15T20:36:54.537Z,7.30
2019-01-15T20:39:24.781Z,8.23
2019-01-15T20:42:10.946Z,8.17
2019-01-15T20:44:49.957Z,7.97
2019-01-15T20:47:25.465Z,8.73
2019-01-15T20:49:54.815Z,8.33
2019-01-15T20:52:25.061Z,8.33
2019-01-15T20:55:04.024Z,7.13
2019-01-15T20:57:52.113Z,8.80
2019-01-15T21:00:37.106Z,8.90
2019-01-15T21:03:23.581Z,8.63
2019-01-15T21:06:08.800Z,9.13
2019-01-15T21:08:47.974Z,8.57
2019-01-15T21:11:18.162Z,8.83
2019-01-15T21:13:51.197Z,9.20
2019-01-15T21:16:21.381Z,10.20
2019-01-15T21:18:54.391Z,9.10
2019-01-15T21:21:40.787Z,9.43
2019-01-15T21:24:27.114Z,9.47
2019-01-15T21:26:57.296Z,8.97
2019-01-15T21:29:30.061Z,9.83
2019-01-15T21:32:12.053Z,8.93
2019-01-15T21:34:57.223Z,9.07
2019-01-15T21:37:45.282Z,9.93
2019-01-15T21:40:15.498Z,9.43
2019-01-15T21:42:45.701Z,10.23
2019-01-15T21:45:15.986Z,9.37
2019-01-15T21:47:52.119Z,9.00
2019-01-15T21:50:31.480Z,9.17
2019-01-15T21:53:04.310Z,10.17
2019-01-15T21:55:37.188Z,8.90
2019-01-15T21:58:22.174Z,9.00
2019-01-15T22:00:52.386Z,8.70
2019-01-15T22:03:38.382Z,9.73
2019-01-15T22:06:14.325Z,10.57
2019-01-15T22:09:00.275Z,12.90
2019-01-15T22:11:33.202Z,30.80
2019-01-15T22:14:17.845Z,12.97
2019-01-15T22:16:56.669Z,11.40
2019-01-15T22:19:26.861Z,10.93
2019-01-15T22:22:08.679Z,10.53
2019-01-15T22:24:54.837Z,11.23
2019-01-15T22:27:36.735Z,12.23
2019-01-15T22:30:09.657Z,12.90
2019-01-15T22:32:39.866Z,12.73
2019-01-15T22:35:16.136Z,11.97
2019-01-15T22:37:52.243Z,11.73
2019-01-15T22:40:24.858Z,11.27
2019-01-15T22:42:57.465Z,9.70
2019-01-15T22:45:43.555Z,9.97
2019-01-15T22:48:29.765Z,8.57
2019-01-15T22:51:15.038Z,9.33
2019-01-15T22:53:50.993Z,8.70
2019-01-15T22:56:21.134Z,8.37
2019-01-15T22:58:56.761Z,9.10
2019-01-15T23:01:30.163Z,8.83
2019-01-15T23:04:15.450Z,8.40
2019-01-15T23:06:45.654Z,7.83
2019-01-15T23:09:32.131Z,9.10
2019-01-15T23:12:17.566Z,7.87
2019-01-15T23:14:50.555Z,7.60
2019-01-15T23:17:26.298Z,7.37
2019-01-15T23:19:56.493Z,8.20
2019-01-15T23:22:32.790Z,8.63
2019-01-15T23:25:02.968Z,8.40
2019-01-15T23:27:38.845Z,7.80
2019-01-15T23:30:12.102Z,7.10
2019-01-15T23:32:51.298Z,6.97
2019-01-15T23:35:21.408Z,6.83
2019-01-15T23:37:51.605Z,8.67
2019-01-15T23:40:36.666Z,7.10
2019-01-15T23:43:09.978Z,6.60
2019-01-15T23:45:45.746Z,21.97
2019-01-15T23:48:21.405Z,9.93
2019-01-15T23:50:51.606Z,10.47
2019-01-15T23:53:27.458Z,10.00
2019-01-15T23:56:03.353Z,9.87
2019-01-15T23:58:39.064Z,7.70
